• Join FlightAware (Why Join?)
  • Login
  • US Flag 
07:19AM EDT


 

Airport Tracker/Info


-or-


 

Live Flight TrackerFlight Track Log ✈ RPA3392 ✈ 28-Jun-2013 ✈ KDCA - KALB

Flight Track Log - Related Links

Times and Time Zones

All times are in EDT time to prevent confusion due to time zone crossing. See the RPA3392 flight status page for this flight to view local times or setup timezone preferences in your user account.

Time Position Orientation Groundspeed Altitude Reporting Facility
EDT Latitude Longitude Course Direction KTS MPH feet Rate Location/Type
01:29AM 38.8000 -77.0333 142° Southeast 171 197 1,800  Level Potomac TRACON
01:29AM 38.7667 -77.0000 142° Southeast 217 250 3,600 2,040 Climbing Potomac TRACON
01:31AM 38.8314 -76.8733 57° Northeast 269 310 6,900 2,520 Climbing Washington Center
01:32AM 38.8783 -76.7836 56° Northeast 290 334 10,500 3,180 Climbing Washington Center
01:33AM 38.9208 -76.6936 59° Northeast 295 339 13,200 1,620 Climbing Washington Center
01:38AM 39.2540 -76.0970 59° Northeast 437 503 20,500 1,260 Climbing FlightAware
01:39AM 39.2930 -76.0310 53° Northeast 437 503 20,500  Level FlightAware
01:40AM 39.3420 -75.9460 53° Northeast 437 503 20,500  Level FlightAware
01:41AM 39.4050 -75.8380 53° Northeast 437 503 20,500  Level FlightAware
01:41AM 39.4410 -75.7770 53° Northeast 437 503 20,500 3,660 Level FlightAware
01:42AM 39.5594 -75.5753 53° Northeast 471 542 26,000 2,580 Climbing Washington Center
01:44AM 39.6956 -75.3414 53° Northeast 472 543 27,000 360 Climbing New York Center
01:45AM 39.7828 -75.1875 54° Northeast 504 580 27,000  Level New York Center
01:46AM 39.8522 -75.0567 55° Northeast 529 609 27,000  Level New York Center
01:47AM 39.9589 -74.8736 53° Northeast 529 609 27,000  Level New York Center
01:48AM 40.0364 -74.7400 53° Northeast 524 603 27,000  Level New York Center
01:49AM 40.1733 -74.6364 30° Northeast 502 578 27,000  Level New York Center
01:50AM 40.2997 -74.5917 15° North 493 567 27,000  Level New York Center
01:51AM 40.4386 -74.5506 13° North 498 573 27,000  Level New York Center
01:52AM 40.6564 -74.4836 13° North 499 574 27,000  Level Boston Center
01:53AM 40.7947 -74.4386 14° North 504 580 27,000  Level Boston Center
01:54AM 40.9331 -74.3908 15° North 504 580 27,000  Level Boston Center
01:55AM 41.0922 -74.3486 11° North 514 592 27,000  Level Boston Center
01:56AM 41.2306 -74.3031 14° North 509 586 27,000  Level Boston Center
01:57AM 41.3625 -74.2572 15° North 493 567 27,000 -540 Level Boston Center
01:58AM 41.5050 -74.2114 14° North 493 567 26,000 -2,160 Descending Boston Center
01:59AM 41.6433 -74.1653 14° North 508 585 22,700 -3,120 Descending Boston Center
02:00AM 41.7647 -74.1294 12° North 489 563 19,800 -2,880 Descending Boston Center
02:01AM 41.8842 -74.0881 14° North 446 513 17,000 -2,340 Descending Boston Center
02:02AM 41.9867 -74.0572 13° North 427 491 15,200 -2,100 Descending Boston Center
02:03AM 42.0975 -74.0208 14° North 407 468 12,800 -2,100 Descending Boston Center
02:04AM 42.2131 -73.9678 19° North 402 463 11,000 -1,260 Descending Boston Center
02:05AM 42.2969 -73.9250 21° North 372 428 10,300 -1,380 Descending Boston Center
02:06AM 42.3914 -73.8794 20° North 332 382 8,300 -1,920 Descending Boston Center
02:07AM 42.4625 -73.8444 20° North 309 356 6,500 -1,860 Descending Boston Center
02:08AM 42.5422 -73.8039 21° North 287 330 4,600 -1,740 Descending Boston Center
02:09AM 42.6069 -73.8025 North 261 300 3,100 -1,500 Descending Boston Center
02:10AM 42.6672 -73.8039 359° North 172 198 1,600 -1,140 Descending Boston Center
02:11AM 42.6944 -73.8044 359° North 142 163 1,100 -720 Descending Boston Center